createdAt,value
2022-10-06T08:11:15.027Z,100214.69
2022-10-06T08:16:24.746Z,100226.66
2022-10-06T08:21:34.711Z,100232.89
2022-10-06T08:26:44.496Z,100237.28
2022-10-06T08:31:51.642Z,100245.37
2022-10-06T08:37:19.441Z,100257.58
2022-10-06T08:42:35.818Z,100275.21
2022-10-06T08:47:56.859Z,100281.65
2022-10-06T08:53:15.561Z,100285.93
2022-10-06T08:58:36.498Z,100296.52
2022-10-06T09:03:48.913Z,100300.90
2022-10-06T09:09:00.590Z,100298.38
2022-10-06T09:14:16.245Z,100311.95
2022-10-06T09:19:32.882Z,100314.11
2022-10-06T09:24:47.110Z,100322.80
2022-10-06T09:29:55.052Z,100326.34
2022-10-06T09:35:05.548Z,100324.32
2022-10-06T09:40:36.594Z,100343.40
2022-10-06T09:45:43.741Z,100346.58
2022-10-06T09:51:11.202Z,100343.27
2022-10-06T09:56:20.240Z,100350.97
2022-10-06T10:01:31.160Z,100366.39
2022-10-06T10:06:38.755Z,100366.85
2022-10-06T10:12:05.451Z,100376.25
2022-10-06T10:17:19.604Z,100378.25
2022-10-06T10:22:32.484Z,100388.75
2022-10-06T10:27:51.678Z,100399.48
2022-10-06T10:33:06.853Z,100408.11
2022-10-06T10:38:21.798Z,100403.03
2022-10-06T10:43:34.797Z,100405.19
2022-10-06T10:48:46.115Z,100411.78
2022-10-06T10:53:57.292Z,100426.39
2022-10-06T10:59:17.109Z,100432.20
2022-10-06T11:04:24.128Z,100444.17
2022-10-06T11:09:40.278Z,100449.38
2022-10-06T11:14:57.696Z,100451.39
2022-10-06T11:20:13.309Z,100445.55
2022-10-06T11:25:31.374Z,100453.87
2022-10-06T11:30:56.633Z,100460.02
2022-10-06T11:36:05.358Z,100471.01
2022-10-06T11:41:21.747Z,100473.32
2022-10-06T11:46:44.082Z,100480.07
2022-10-06T11:51:56.954Z,100488.33
2022-10-06T11:57:31.157Z,100485.72
2022-10-06T12:02:42.845Z,100492.69
2022-10-06T12:08:17.070Z,100501.92
2022-10-06T12:19:17.192Z,100525.83
2022-10-06T12:24:42.168Z,100531.48
2022-10-06T12:29:54.090Z,100543.88
2022-10-06T12:35:14.517Z,100548.20
2022-10-06T12:40:49.830Z,100555.13
2022-10-06T12:46:01.627Z,100568.91
2022-10-06T12:51:09.602Z,100575.91
2022-10-06T12:56:29.218Z,100579.34
2022-10-06T13:01:36.543Z,100590.64
2022-10-06T13:06:52.178Z,100587.63
2022-10-06T13:11:59.785Z,100603.11
2022-10-06T13:17:07.046Z,100601.16
2022-10-06T13:22:16.941Z,100598.41
2022-10-06T13:27:24.438Z,100601.22
2022-10-06T13:32:31.847Z,100608.10
2022-10-06T13:37:39.434Z,100612.20
2022-10-06T13:42:49.670Z,100621.44
2022-10-06T13:48:09.330Z,100626.11
2022-10-06T13:53:28.538Z,100622.86
2022-10-06T13:58:36.464Z,100620.69
2022-10-06T14:03:43.702Z,100637.27
2022-10-06T14:08:55.797Z,100647.29
2022-10-06T14:14:05.976Z,100658.20
2022-10-06T14:19:42.089Z,100665.88
2022-10-06T14:24:55.406Z,100666.16
2022-10-06T14:30:03.224Z,100681.71
2022-10-06T14:35:13.756Z,100688.51
2022-10-06T14:40:21.539Z,100695.31
2022-10-06T14:45:28.699Z,100700.45
2022-10-06T14:50:37.458Z,100711.02
2022-10-06T14:55:45.694Z,100714.88
2022-10-06T15:00:53.058Z,100708.36
2022-10-06T15:06:23.252Z,100732.21
2022-10-06T15:11:32.244Z,100741.84
2022-10-06T15:16:45.173Z,100746.79
2022-10-06T15:21:52.132Z,100758.63
2022-10-06T15:27:17.651Z,100760.82
2022-10-06T15:32:26.516Z,100770.38
2022-10-06T15:37:33.787Z,100776.88
2022-10-06T15:42:40.944Z,100783.96
2022-10-06T15:47:52.722Z,100790.41
2022-10-06T15:53:00.265Z,100799.31
2022-10-06T15:58:07.272Z,100812.12
2022-10-06T16:03:28.045Z,100817.73
2022-10-06T16:08:36.630Z,100831.13
2022-10-06T16:13:43.876Z,100840.05
2022-10-06T16:18:50.878Z,100844.16
2022-10-06T16:23:58.274Z,100843.60
2022-10-06T16:29:06.117Z,100842.59
2022-10-06T16:34:13.844Z,100860.54
2022-10-06T16:39:23.183Z,100871.44
2022-10-06T16:44:30.149Z,100883.64
2022-10-06T16:49:37.131Z,100894.15
2022-10-06T16:54:44.447Z,100902.75
2022-10-06T16:59:51.414Z,100913.73
2022-10-06T17:04:58.460Z,100921.23
2022-10-06T17:10:20.284Z,100923.28
2022-10-06T17:15:32.759Z,100931.77
2022-10-06T17:20:40.650Z,100939.79
2022-10-06T17:25:47.963Z,100949.20
2022-10-06T17:30:59.780Z,100956.23
2022-10-06T17:36:10.927Z,100962.92
2022-10-06T17:41:20.253Z,100966.63
2022-10-06T17:46:28.669Z,100968.33
2022-10-06T17:51:36.512Z,100975.58
2022-10-06T17:56:44.529Z,100978.41
2022-10-06T18:01:52.443Z,100983.57
2022-10-06T18:07:00.474Z,100987.17
2022-10-06T18:12:10.818Z,100988.44
2022-10-06T18:17:18.629Z,100993.45
2022-10-06T18:22:26.102Z,100998.75
2022-10-06T18:27:33.773Z,100998.86
2022-10-06T18:34:36.673Z,101008.31
2022-10-06T18:38:08.199Z,101015.82
2022-10-06T18:43:15.448Z,101017.99
2022-10-06T18:48:40.167Z,101021.17
2022-10-06T18:53:47.435Z,101027.00
2022-10-06T18:58:54.786Z,101029.24
2022-10-06T19:04:04.227Z,101034.15
2022-10-06T19:09:12.176Z,101041.98
2022-10-06T19:14:20.702Z,101045.73
2022-10-06T19:19:29.528Z,101052.08
2022-10-06T19:24:38.165Z,101059.45
2022-10-06T19:29:47.346Z,101059.23
2022-10-06T19:34:55.226Z,101062.66
2022-10-06T19:40:02.625Z,101075.77
2022-10-06T19:45:12.301Z,101083.39
2022-10-06T19:50:20.065Z,101079.61
2022-10-06T19:55:28.995Z,101082.84
2022-10-06T20:00:37.030Z,101086.97
2022-10-06T20:05:44.328Z,101085.45
2022-10-06T20:10:51.486Z,101091.30
2022-10-06T20:16:01.981Z,101090.45
2022-10-06T20:21:15.277Z,101092.77
2022-10-06T20:26:23.873Z,101088.91
2022-10-06T20:31:33.393Z,101092.58
2022-10-06T20:36:41.834Z,101099.48
2022-10-06T20:41:49.327Z,101104.24
2022-10-06T20:46:56.661Z,101111.28
2022-10-06T20:52:05.034Z,101109.67
2022-10-06T20:57:12.148Z,101114.54
2022-10-06T21:02:19.444Z,101118.55
2022-10-06T21:07:26.874Z,101119.04
2022-10-06T21:12:33.913Z,101117.26
2022-10-06T21:17:41.814Z,101124.30
2022-10-06T21:22:50.139Z,101119.06
2022-10-06T21:27:57.337Z,101115.27
2022-10-06T21:33:04.283Z,101116.02
2022-10-06T21:38:14.192Z,101121.70
2022-10-06T21:43:21.597Z,101123.33
2022-10-06T21:48:28.769Z,101122.28
2022-10-06T21:53:37.000Z,101118.97
2022-10-06T21:58:44.209Z,101124.94
2022-10-06T22:03:51.870Z,101129.69
2022-10-06T22:09:00.151Z,101132.16
2022-10-06T22:14:09.072Z,101133.95
2022-10-06T22:19:18.304Z,101131.83
2022-10-06T22:24:26.373Z,101131.98
2022-10-06T22:29:33.790Z,101122.19
2022-10-06T22:34:41.119Z,101123.95
2022-10-06T22:39:48.104Z,101122.88
2022-10-06T22:44:55.695Z,101118.50
2022-10-06T22:50:02.825Z,101118.35
2022-10-06T22:55:11.348Z,101116.77
2022-10-06T23:00:19.510Z,101116.63
2022-10-06T23:05:26.650Z,101119.14
2022-10-06T23:10:34.062Z,101123.38
2022-10-06T23:15:41.114Z,101124.26
2022-10-06T23:20:48.037Z,101126.44
2022-10-06T23:25:55.305Z,101134.71
2022-10-06T23:31:02.495Z,101134.61
2022-10-06T23:36:12.375Z,101133.96
2022-10-06T23:41:19.774Z,101137.55
2022-10-06T23:46:27.328Z,101140.44
2022-10-06T23:51:34.389Z,101142.92
2022-10-06T23:56:41.325Z,101147.36
